Time;durP1;ratioP1;P1;durP2;ratioP2;P2;SDS_P1;SDS_P2;PMS_P1;PMS_P2;Temp;Humidity;BMP_temperature;BMP_pressure;BME280_temperature;BME280_humidity;BME280_pressure;Samples;Min_cycle;Max_cycle;Signal;HPM_P1;HPM_P2
2023/02/21 02:14:52;;;;;;;35.72;14.38;;;;;;;11.89;74.24;102124.19;5023766;28;20283;-42
2023/02/21 02:17:47;;;;;;;36.25;14.85;;;;;;;11.79;74.37;102124.75;5023208;28;20514;-41
2023/02/21 02:20:31;;;;;;;34.35;14.02;;;;;;;11.97;74.54;102114.81;5026278;28;20143;-42
2023/02/21 02:23:15;;;;;;;34.63;14.17;;;;;;;11.87;74.28;102114.50;5022770;28;20519;-42
2023/02/21 02:26:17;;;;;;;33.28;14.35;;;;;;;11.87;74.82;102109.28;5004286;28;20041;-41
2023/02/21 02:28:54;;;;;;;33.03;13.70;;;;;;;11.93;74.11;102107.72;5022422;28;20117;-44
2023/02/21 02:31:26;;;;;;;32.17;14.38;;;;;;;11.89;74.71;102111.13;5021707;28;20044;-40
2023/02/21 02:34:22;;;;;;;33.67;14.57;;;;;;;11.81;74.66;102104.78;5025898;28;20038;-43
2023/02/21 02:37:12;;;;;;;31.77;14.23;;;;;;;11.76;74.88;102098.53;5022115;28;20496;-40
2023/02/21 02:39:47;;;;;;;30.45;14.02;;;;;;;12.29;73.05;102099.09;5022248;28;20065;-41
2023/02/21 02:42:46;;;;;;;29.52;13.85;;;;;;;12.50;72.00;102095.28;5025855;28;20504;-41
2023/02/21 02:45:24;;;;;;;29.30;13.82;;;;;;;12.44;72.16;102094.25;5021954;28;20029;-41
2023/02/21 02:47:56;;;;;;;31.92;14.60;;;;;;;12.20;72.99;102099.72;5022094;28;20091;-40
2023/02/21 02:50:23;;;;;;;34.55;15.90;;;;;;;12.24;72.94;102098.09;5021671;28;20052;-43
2023/02/21 02:52:53;;;;;;;38.47;15.57;;;;;;;12.24;73.13;102103.31;5026078;28;20080;-40
2023/02/21 02:55:22;;;;;;;38.28;15.80;;;;;;;12.01;73.50;102100.09;5023131;28;20056;-42
2023/02/21 02:57:48;;;;;;;37.40;17.05;;;;;;;11.97;73.80;102106.97;5030042;28;20038;-38
2023/02/21 03:00:14;;;;;;;37.63;16.85;;;;;;;11.98;74.17;102102.63;5030744;28;20372;-41
2023/02/21 03:03:14;;;;;;;36.53;16.52;;;;;;;11.98;74.42;102103.50;5024623;28;20068;-44
2023/02/21 03:06:08;;;;;;;39.30;16.75;;;;;;;12.06;73.53;102091.53;5019052;28;20124;-41
2023/02/21 03:09:05;;;;;;;41.95;17.52;;;;;;;11.73;74.48;102094.09;5023460;28;20033;-41
2023/02/21 03:11:31;;;;;;;42.58;17.80;;;;;;;11.85;74.70;102097.91;5022255;28;20037;-44
2023/02/21 03:14:19;;;;;;;37.22;17.08;;;;;;;11.80;74.52;102097.78;5023327;28;20048;-43
2023/02/21 03:16:52;;;;;;;37.75;17.13;;;;;;;11.82;74.80;102095.22;5018969;28;20041;-41
2023/02/21 03:19:23;;;;;;;36.95;17.30;;;;;;;11.61;75.37;102090.22;5021630;28;20530;-41
2023/02/21 03:21:54;;;;;;;36.70;18.10;;;;;;;11.65;75.54;102092.06;5018258;28;20121;-40
2023/02/21 03:24:22;;;;;;;37.13;17.15;;;;;;;11.78;74.47;102095.13;5018271;28;20029;-42
2023/02/21 03:26:52;;;;;;;40.80;18.30;;;;;;;11.85;74.75;102097.91;5021879;28;20037;-38
2023/02/21 03:29:18;;;;;;;38.65;16.80;;;;;;;11.97;73.91;102087.78;5018004;28;20026;-39
2023/02/21 03:31:51;;;;;;;38.70;17.25;;;;;;;11.71;74.54;102093.13;5022225;28;20056;-41
2023/02/21 03:34:16;;;;;;;40.72;17.80;;;;;;;11.95;74.13;102094.72;5020621;28;20040;-38
2023/02/21 03:36:42;;;;;;;40.65;16.83;;;;;;;11.69;74.96;102089.63;5019810;28;20033;-41
2023/02/21 03:39:07;;;;;;;38.22;17.83;;;;;;;11.80;75.08;102097.78;5021850;28;20115;-40
2023/02/21 03:41:32;;;;;;;39.03;17.45;;;;;;;12.01;73.93;102090.53;5016606;28;20083;-41
2023/02/21 03:43:58;;;;;;;36.13;16.98;;;;;;;12.00;73.79;102085.25;5021520;28;20037;-45
2023/02/21 03:46:23;;;;;;;34.75;17.25;;;;;;;11.96;73.94;102078.16;5017609;28;20041;-43
2023/02/21 03:48:49;;;;;;;35.22;16.58;;;;;;;12.01;74.51;102072.25;5022040;28;20124;-40
2023/02/21 03:51:15;;;;;;;37.83;16.73;;;;;;;11.92;74.18;102074.59;5022139;28;20045;-42
2023/02/21 03:53:40;;;;;;;34.67;17.23;;;;;;;12.07;73.43;102082.88;5017701;28;20038;-38
2023/02/21 03:56:06;;;;;;;38.30;16.98;;;;;;;11.77;74.53;102087.25;5021554;28;20140;-41
2023/02/21 03:58:32;;;;;;;32.25;16.55;;;;;;;12.17;73.24;102087.47;5017552;28;20075;-43
2023/02/21 04:00:57;;;;;;;35.45;16.42;;;;;;;12.18;73.36;102085.75;5021065;28;20030;-44
2023/02/21 04:03:23;;;;;;;35.20;16.58;;;;;;;12.09;73.38;102081.16;5017658;28;20030;-41
2023/02/21 04:05:49;;;;;;;33.83;16.73;;;;;;;12.22;72.71;102082.34;5021310;28;20427;-44
2023/02/21 04:08:14;;;;;;;35.85;16.50;;;;;;;12.02;73.67;102081.81;5021838;28;20037;-41
2023/02/21 04:10:40;;;;;;;32.88;16.67;;;;;;;12.29;73.04;102089.53;5017371;28;20048;-42
2023/02/21 04:13:06;;;;;;;37.00;16.92;;;;;;;12.28;72.75;102082.50;5021453;28;20033;-41
2023/02/21 04:15:31;;;;;;;36.83;16.90;;;;;;;12.37;72.18;102089.72;5018161;28;20063;-40
2023/02/21 04:17:57;;;;;;;33.88;16.80;;;;;;;12.26;72.14;102085.97;5024164;28;20045;-40
2023/02/21 04:20:22;;;;;;;34.05;16.77;;;;;;;12.42;72.22;102082.88;5019668;28;20036;-43
2023/02/21 04:22:47;;;;;;;36.50;17.70;;;;;;;12.34;72.41;102087.00;5020636;28;20049;-42
2023/02/21 04:25:14;;;;;;;35.45;16.70;;;;;;;12.02;73.58;102084.44;5020785;28;20076;-41
2023/02/21 04:27:39;;;;;;;38.92;17.33;;;;;;;11.86;74.41;102084.88;5017480;28;20472;-41
2023/02/21 04:30:05;;;;;;;40.30;17.50;;;;;;;11.81;74.33;102081.25;5020383;28;20087;-41
2023/02/21 04:32:30;;;;;;;36.42;17.23;;;;;;;11.92;73.92;102071.97;5016822;28;20030;-40
2023/02/21 04:34:55;;;;;;;37.35;17.20;;;;;;;12.19;73.42;102071.84;5020589;28;20535;-42
2023/02/21 04:37:20;;;;;;;41.15;17.52;;;;;;;11.75;74.58;102070.66;5016841;28;20029;-42
2023/02/21 04:39:46;;;;;;;36.38;17.65;;;;;;;12.07;73.53;102069.78;5004279;28;20505;-41
2023/02/21 04:42:11;;;;;;;35.00;17.90;;;;;;;12.03;73.71;102070.53;5022930;28;20056;-40
2023/02/21 04:44:37;;;;;;;39.20;18.23;;;;;;;12.11;72.92;102075.97;5017911;28;20048;-40
2023/02/21 04:47:02;;;;;;;39.72;18.23;;;;;;;12.12;73.16;102080.34;5021088;28;20060;-40
2023/02/21 04:49:28;;;;;;;41.30;18.17;;;;;;;12.33;72.75;102087.84;5017118;28;20090;-41
2023/02/21 04:51:53;;;;;;;40.50;18.58;;;;;;;12.41;72.34;102075.88;5020793;28;20498;-39
2023/02/21 04:54:19;;;;;;;39.88;18.27;;;;;;;12.51;72.02;102073.50;5020766;28;20573;-41
2023/02/21 04:56:44;;;;;;;37.05;18.25;;;;;;;12.11;72.91;102068.13;5016768;28;20038;-40
2023/02/21 04:59:09;;;;;;;43.80;18.48;;;;;;;12.29;72.70;102076.44;5020041;28;20041;-42
2023/02/21 05:01:35;;;;;;;38.95;18.25;;;;;;;12.22;72.94;102065.78;5017318;28;20033;-41
2023/02/21 05:04:00;;;;;;;41.75;19.40;;;;;;;12.30;72.59;102069.50;5023973;28;20606;-40
2023/02/21 05:06:27;;;;;;;43.65;18.58;;;;;;;12.00;73.40;102080.94;5018881;28;20042;-44
2023/02/21 05:08:53;;;;;;;40.67;18.35;;;;;;;11.93;73.55;102073.75;5020684;28;20506;-41
2023/02/21 05:11:20;;;;;;;35.72;18.45;;;;;;;12.16;73.36;102066.50;5016086;28;20045;-40
2023/02/21 05:13:46;;;;;;;40.08;18.83;;;;;;;11.99;73.97;102070.41;5020190;28;20099;-42
2023/02/21 05:16:11;;;;;;;40.50;18.35;;;;;;;12.14;73.77;102057.72;5020155;28;20033;-43
2023/02/21 05:18:39;;;;;;;38.30;19.15;;;;;;;11.95;73.55;102061.63;5016156;28;20033;-41
2023/02/21 05:21:06;;;;;;;40.83;17.67;;;;;;;12.09;73.83;102065.47;5019737;28;20499;-41
2023/02/21 05:23:33;;;;;;;37.42;18.00;;;;;;;12.10;73.26;102068.97;5016558;28;20052;-40
2023/02/21 05:26:04;;;;;;;40.60;18.52;;;;;;;11.88;73.96;102070.13;5020247;28;20123;-41
2023/02/21 05:28:29;;;;;;;38.22;17.80;;;;;;;11.86;73.87;102063.09;5018146;28;20092;-43
2023/02/21 05:30:55;;;;;;;39.60;17.70;;;;;;;12.25;72.73;102073.72;5019868;28;20204;-41
2023/02/21 05:33:21;;;;;;;34.08;17.70;;;;;;;11.79;74.12;102077.72;5016232;28;20040;-41
2023/02/21 05:35:47;;;;;;;37.55;17.77;;;;;;;11.90;74.24;102068.44;5020243;28;20456;-42
2023/02/21 05:38:13;;;;;;;34.83;17.55;;;;;;;11.66;74.73;102068.63;5019852;28;20087;-41
2023/02/21 05:40:38;;;;;;;36.90;17.70;;;;;;;11.73;74.90;102065.38;5015656;28;20164;-41
2023/02/21 05:43:04;;;;;;;41.58;18.60;;;;;;;11.86;74.21;102063.97;5019492;28;20124;-44
2023/02/21 05:45:29;;;;;;;31.30;16.95;;;;;;;12.20;73.35;102058.78;5015473;28;20033;-41
2023/02/21 05:47:58;;;;;;;34.97;17.35;;;;;;;12.16;73.50;102050.81;5019395;28;20099;-41
2023/02/21 05:50:24;;;;;;;32.83;17.25;;;;;;;12.15;73.15;102055.16;5015019;28;20074;-43
2023/02/21 05:52:50;;;;;;;31.98;16.95;;;;;;;12.60;71.63;102059.78;5019323;28;20069;-42
2023/02/21 05:55:15;;;;;;;36.42;17.25;;;;;;;11.98;72.40;102072.16;5019897;28;20026;-41
2023/02/21 05:57:40;;;;;;;37.05;17.70;;;;;;;12.00;72.81;102077.41;5015181;28;20084;-42
2023/02/21 06:00:07;;;;;;;34.33;17.08;;;;;;;12.15;72.76;102063.00;5018675;28;20041;-41
2023/02/21 06:02:32;;;;;;;35.40;17.92;;;;;;;12.02;73.04;102052.19;5015723;28;20041;-41
2023/02/21 06:04:57;;;;;;;33.90;17.73;;;;;;;12.01;73.34;102053.06;5019103;28;20033;-41
2023/02/21 06:07:23;;;;;;;34.30;17.80;;;;;;;12.16;72.77;102059.56;5016045;28;20030;-40
2023/02/21 06:09:48;;;;;;;34.63;17.80;;;;;;;12.02;73.36;102060.03;5019007;28;20077;-40
2023/02/21 06:12:13;;;;;;;36.30;17.10;;;;;;;12.14;73.04;102060.34;5019775;28;20112;-42
2023/02/21 06:14:38;;;;;;;31.60;16.77;;;;;;;12.07;73.29;102064.56;5015632;28;20045;-41
2023/02/21 06:17:04;;;;;;;33.60;16.90;;;;;;;12.44;72.18;102053.28;5019673;28;20514;-41
2023/02/21 06:19:29;;;;;;;32.47;17.33;;;;;;;12.51;71.67;102063.03;5016368;28;20030;-42
2023/02/21 06:21:54;;;;;;;38.03;17.13;;;;;;;12.52;71.39;102062.19;5021068;28;20535;-41
2023/02/21 06:24:20;;;;;;;37.20;18.30;;;;;;;12.05;72.96;102076.69;5019353;28;20037;-44
2023/02/21 06:26:45;;;;;;;33.58;17.25;;;;;;;12.11;72.98;102073.34;5022939;28;20131;-41
2023/02/21 06:29:11;;;;;;;34.15;16.42;;;;;;;12.29;72.67;102073.81;5020074;28;20037;-41
2023/02/21 06:31:36;;;;;;;33.95;17.15;;;;;;;12.11;72.98;102069.00;5015187;28;20046;-41
2023/02/21 06:34:02;;;;;;;36.72;17.65;;;;;;;12.32;72.37;102073.88;5020241;28;20415;-42
2023/02/21 06:36:28;;;;;;;36.20;17.85;;;;;;;12.12;72.54;102069.91;5020170;28;20025;-41
2023/02/21 06:38:56;;;;;;;37.17;18.40;;;;;;;11.91;73.79;102069.31;5017729;28;20037;-42
2023/02/21 06:41:25;;;;;;;38.97;18.30;;;;;;;11.86;74.02;102076.16;5019077;28;20559;-41
2023/02/21 06:43:52;;;;;;;37.63;17.88;;;;;;;11.90;74.03;102083.22;5023037;28;20506;-41
2023/02/21 06:46:22;;;;;;;34.42;17.38;;;;;;;12.22;72.46;102079.75;5025534;28;20072;-42
2023/02/21 06:48:48;;;;;;;37.28;17.90;;;;;;;12.26;71.77;102068.50;5021830;28;20032;-40
2023/02/21 06:51:13;;;;;;;35.30;17.08;;;;;;;12.22;72.96;102071.00;5023365;28;20030;-41
2023/02/21 06:53:40;;;;;;;35.08;17.67;;;;;;;12.07;73.26;102071.53;5020306;28;20037;-44
2023/02/21 06:56:06;;;;;;;34.20;16.98;;;;;;;12.36;72.37;102078.38;5027850;28;20045;-41
2023/02/21 06:58:31;;;;;;;39.28;17.23;;;;;;;12.20;72.95;102084.03;5023301;28;20037;-43
2023/02/21 07:00:56;;;;;;;37.05;17.50;;;;;;;12.19;72.57;102085.78;5023569;28;20497;-41
2023/02/21 07:03:22;;;;;;;32.80;16.92;;;;;;;12.33;72.57;102083.50;5019281;28;20480;-43
2023/02/21 07:05:47;;;;;;;35.72;17.30;;;;;;;12.44;71.67;102073.34;5023403;28;20535;-42
2023/02/21 07:08:12;;;;;;;33.58;17.02;;;;;;;12.20;72.69;102073.56;5026062;28;20053;-41
2023/02/21 07:10:38;;;;;;;32.85;17.30;;;;;;;12.25;72.48;102081.56;5019435;28;20037;-46
2023/02/21 07:13:03;;;;;;;34.00;16.63;;;;;;;12.39;71.93;102074.94;5022691;28;20042;-41
2023/02/21 07:15:28;;;;;;;34.50;17.08;;;;;;;12.41;72.00;102074.13;5019207;28;20033;-41
2023/02/21 07:17:54;;;;;;;35.30;17.70;;;;;;;12.40;72.11;102080.22;5022343;28;20037;-42
2023/02/21 07:20:19;;;;;;;31.52;16.63;;;;;;;12.56;71.45;102081.50;5017905;28;20041;-41
2023/02/21 07:22:44;;;;;;;34.72;16.88;;;;;;;12.24;72.08;102087.63;5022026;28;20040;-41
2023/02/21 07:25:18;;;;;;;33.70;16.35;;;;;;;12.29;72.16;102079.06;5021920;28;20474;-46
2023/02/21 07:27:46;;;;;;;29.77;16.25;;;;;;;12.58;71.12;102074.53;5018284;28;20045;-43
2023/02/21 07:30:11;;;;;;;30.23;15.95;;;;;;;12.58;71.39;102078.03;5021575;28;20030;-41
2023/02/21 07:32:37;;;;;;;34.00;16.33;;;;;;;12.66;71.18;102074.75;5018515;28;20052;-41
2023/02/21 07:35:03;;;;;;;29.45;16.20;;;;;;;12.46;71.34;102079.47;5021595;28;20037;-40
2023/02/21 07:37:29;;;;;;;29.70;15.90;;;;;;;12.68;70.95;102079.16;5017775;28;20044;-40
2023/02/21 07:39:54;;;;;;;28.27;15.30;;;;;;;12.91;70.13;102074.47;5021426;28;20042;-41
2023/02/21 07:42:19;;;;;;;28.35;15.82;;;;;;;12.74;70.16;102083.66;5017767;28;20074;-39
2023/02/21 07:44:45;;;;;;;33.33;15.98;;;;;;;12.81;70.37;102083.81;5021912;28;20440;-40
2023/02/21 07:47:10;;;;;;;30.73;15.52;;;;;;;12.93;69.89;102084.09;5003901;28;20033;-41
2023/02/21 07:49:38;;;;;;;29.52;16.65;;;;;;;12.56;70.68;102094.56;5000058;28;20029;-44
2023/02/21 07:52:03;;;;;;;32.72;16.88;;;;;;;12.42;71.65;102098.56;5021768;28;20033;-42
2023/02/21 07:54:28;;;;;;;30.73;16.52;;;;;;;12.54;71.44;102080.56;5017651;28;20087;-42
2023/02/21 07:56:54;;;;;;;30.40;16.25;;;;;;;12.46;71.79;102076.84;5021336;28;20033;-42
2023/02/21 07:59:19;;;;;;;31.83;16.35;;;;;;;12.50;71.39;102081.34;5017680;28;20033;-40
2023/02/21 08:01:46;;;;;;;34.03;16.30;;;;;;;12.65;70.78;102088.66;5021700;28;20044;-40
2023/02/21 08:04:12;;;;;;;30.65;15.32;;;;;;;12.56;71.33;102099.81;5021378;28;20040;-42
2023/02/21 08:06:37;;;;;;;30.38;16.08;;;;;;;12.84;70.36;102094.38;5020191;28;20230;-41
2023/02/21 08:09:03;;;;;;;30.30;16.88;;;;;;;12.80;70.48;102094.28;5023581;28;20081;-44
2023/02/21 08:11:28;;;;;;;33.42;17.25;;;;;;;12.66;70.73;102085.19;5017397;28;20052;-42
2023/02/21 08:13:54;;;;;;;29.88;16.83;;;;;;;12.67;70.92;102086.97;5021662;28;20037;-42
2023/02/21 08:16:19;;;;;;;32.10;16.58;;;;;;;12.68;71.24;102084.41;5016996;28;20029;-43
2023/02/21 08:18:49;;;;;;;32.33;16.75;;;;;;;12.43;72.06;102085.53;5021600;28;20108;-43
2023/02/21 08:21:15;;;;;;;31.52;16.38;;;;;;;12.97;70.30;102085.97;5022543;28;20044;-42
2023/02/21 08:23:40;;;;;;;30.60;16.02;;;;;;;13.09;69.55;102087.09;5020073;28;20029;-40
2023/02/21 08:26:06;;;;;;;28.73;16.33;;;;;;;12.67;70.85;102089.59;5023114;28;20037;-41
2023/02/21 08:28:31;;;;;;;29.55;16.48;;;;;;;12.49;71.25;102084.81;5019426;28;20048;-41
2023/02/21 08:30:57;;;;;;;31.73;16.80;;;;;;;12.67;70.96;102090.47;5022673;28;20037;-41
2023/02/21 08:33:22;;;;;;;28.90;16.63;;;;;;;13.07;69.80;102092.28;5018327;28;20115;-41
2023/02/21 08:35:48;;;;;;;29.92;16.90;;;;;;;12.60;70.75;102094.69;5021885;28;20037;-41
2023/02/21 08:38:13;;;;;;;29.25;16.40;;;;;;;12.68;70.80;102089.63;5022780;28;20499;-41
2023/02/21 08:40:39;;;;;;;28.52;16.58;;;;;;;12.56;71.16;102086.72;5017458;28;20639;-41
2023/02/21 08:43:04;;;;;;;30.98;16.98;;;;;;;12.79;71.14;102087.25;5021651;28;20046;-41
2023/02/21 08:45:30;;;;;;;31.05;17.23;;;;;;;12.68;70.66;102079.16;5018184;28;20026;-41
2023/02/21 08:47:57;;;;;;;31.17;16.92;;;;;;;12.55;71.50;102088.44;5021800;28;20380;-41
2023/02/21 08:50:24;;;;;;;31.63;17.30;;;;;;;12.82;70.51;102093.44;5017420;28;20044;-41
2023/02/21 08:52:50;;;;;;;32.50;17.08;;;;;;;12.96;70.06;102088.53;5020988;28;20323;-41
2023/02/21 08:55:18;;;;;;;31.77;16.85;;;;;;;12.98;69.86;102079.88;5021323;28;20091;-40
2023/02/21 08:57:44;;;;;;;31.65;16.92;;;;;;;13.16;69.22;102089.03;5016753;28;20037;-41
2023/02/21 09:00:10;;;;;;;29.10;16.25;;;;;;;12.83;70.07;102084.75;5019845;28;20041;-41
2023/02/21 09:02:40;;;;;;;27.65;15.80;;;;;;;12.76;70.21;102081.94;5016863;28;20124;-40
2023/02/21 09:05:17;;;;;;;27.00;16.33;;;;;;;12.92;69.90;102089.31;5020555;28;20371;-42
2023/02/21 09:07:43;;;;;;;26.98;16.33;;;;;;;12.74;69.88;102088.91;5016522;28;20037;-42
2023/02/21 09:10:10;;;;;;;29.33;16.30;;;;;;;13.08;69.37;102086.19;5020441;28;20078;-39
2023/02/21 09:12:37;;;;;;;29.58;17.10;;;;;;;13.05;69.48;102082.63;5017077;28;20482;-42
2023/02/21 09:15:03;;;;;;;28.77;16.98;;;;;;;13.02;69.66;102086.06;5020399;28;20432;-40
2023/02/21 09:17:32;;;;;;;27.55;16.92;;;;;;;12.81;69.84;102083.81;4999197;28;20041;-41
2023/02/21 09:19:58;;;;;;;31.25;17.20;;;;;;;13.16;69.31;102082.06;5020306;28;20038;-41
2023/02/21 09:22:23;;;;;;;28.77;16.73;;;;;;;12.86;70.10;102076.97;5023224;28;20056;-41
2023/02/21 09:24:49;;;;;;;29.10;16.40;;;;;;;13.10;69.11;102076.66;5018308;28;20495;-41
2023/02/21 09:27:16;;;;;;;27.55;16.95;;;;;;;12.67;70.61;102076.50;5022238;28;20087;-44
2023/02/21 09:29:42;;;;;;;30.40;17.35;;;;;;;12.92;70.34;102076.25;5018391;28;20106;-41
2023/02/21 09:32:07;;;;;;;27.80;16.63;;;;;;;12.92;69.54;102076.25;5022842;28;20041;-42
2023/02/21 09:34:33;;;;;;;32.17;18.27;;;;;;;12.71;70.89;102071.38;5018269;28;20553;-44
2023/02/21 09:36:58;;;;;;;32.65;17.85;;;;;;;12.63;70.67;102062.44;5021477;28;20033;-40
2023/02/21 09:39:24;;;;;;;32.42;18.23;;;;;;;12.66;70.66;102072.13;5018950;28;20030;-43
2023/02/21 09:41:52;;;;;;;31.13;18.40;;;;;;;12.31;72.11;102068.66;5023365;28;20037;-40
2023/02/21 09:44:20;;;;;;;32.53;17.75;;;;;;;12.51;71.24;102068.28;5019766;28;20202;-51
2023/02/21 09:46:53;;;;;;;30.42;17.95;;;;;;;12.60;70.62;102058.06;5021364;28;20053;-40
2023/02/21 09:49:34;;;;;;;31.77;17.67;;;;;;;12.62;70.94;102060.72;5019169;28;20036;-39
2023/02/21 09:52:01;;;;;;;31.33;17.80;;;;;;;12.61;70.64;102056.31;5023629;28;20114;-44
2023/02/21 09:54:34;;;;;;;30.25;17.38;;;;;;;12.85;70.53;102061.25;5019763;28;20030;-41
2023/02/21 09:57:02;;;;;;;32.65;18.83;;;;;;;13.27;68.74;102071.81;5005675;28;20030;-41
2023/02/21 09:59:28;;;;;;;28.58;17.75;;;;;;;13.16;68.98;102068.97;5019699;28;20038;-42
2023/02/21 10:02:13;;;;;;;30.17;17.83;;;;;;;13.17;69.22;102068.13;5023436;28;20060;-41
2023/02/21 10:04:50;;;;;;;31.67;18.25;;;;;;;12.52;70.70;102058.69;5020276;28;20075;-40
2023/02/21 10:07:42;;;;;;;35.33;17.55;;;;;;;12.57;71.04;102057.97;5024422;28;20043;-41
2023/02/21 10:10:17;;;;;;;33.50;17.52;;;;;;;13.04;69.89;102068.66;5019732;28;20428;-41
2023/02/21 10:12:54;;;;;;;32.13;18.45;;;;;;;12.80;70.52;102058.53;5022106;28;20045;-41
2023/02/21 10:15:32;;;;;;;34.22;18.15;;;;;;;12.73;70.62;102051.38;5027300;28;20057;-41
2023/02/21 10:18:34;;;;;;;33.78;18.77;;;;;;;12.77;70.94;102047.09;5022767;28;20479;-44
2023/02/21 10:21:04;;;;;;;35.08;18.92;;;;;;;12.55;71.25;102048.31;5020703;28;20080;-41
2023/02/21 10:23:35;;;;;;;31.98;18.48;;;;;;;12.75;70.48;102054.88;5019963;28;20037;-44
2023/02/21 10:26:08;;;;;;;35.90;19.25;;;;;;;12.95;70.29;102061.47;5024136;28;20125;-42
2023/02/21 10:28:34;;;;;;;40.55;20.33;;;;;;;13.30;69.21;102050.91;5019901;28;20064;-44
2023/02/21 10:31:06;;;;;;;41.53;21.45;;;;;;;13.23;68.83;102059.50;5024205;28;20107;-40
2023/02/21 10:33:35;;;;;;;46.50;22.33;;;;;;;13.11;69.54;102053.97;5022541;28;20053;-46
2023/02/21 10:36:00;;;;;;;52.10;22.65;;;;;;;12.57;71.43;102055.34;5026436;28;20037;-40
2023/02/21 10:38:26;;;;;;;53.22;23.45;;;;;;;12.88;70.78;102053.44;5021559;28;20033;-43
2023/02/21 10:41:03;;;;;;;54.88;22.33;;;;;;;13.03;70.41;102053.81;5022493;28;20063;-41
2023/02/21 10:43:38;;;;;;;58.72;23.25;;;;;;;12.66;71.96;102046.84;5021789;28;20281;-41
2023/02/21 10:46:16;;;;;;;58.45;22.80;;;;;;;12.66;72.18;102052.06;5026609;28;20037;-45
2023/02/21 10:48:42;;;;;;;56.67;22.50;;;;;;;12.66;72.18;102048.56;5022287;28;20049;-41
2023/02/21 10:51:11;;;;;;;56.80;21.52;;;;;;;12.71;72.31;102049.56;5024647;28;20056;-42
2023/02/21 10:53:42;;;;;;;55.67;21.52;;;;;;;12.10;73.96;102053.28;5021232;28;20458;-40
2023/02/21 10:56:28;;;;;;;57.25;21.48;;;;;;;11.85;75.62;102046.53;5024928;28;20060;-42
2023/02/21 10:59:05;;;;;;;59.00;21.92;;;;;;;12.46;74.13;102040.25;5018967;28;20033;-45
2023/02/21 11:01:40;;;;;;;55.20;19.50;;;;;;;12.52;73.14;102046.50;5018802;28;20036;-40
2023/02/21 11:04:27;;;;;;;45.72;17.75;;;;;;;12.51;72.98;102036.88;5022682;28;20036;-41
2023/02/21 11:07:04;;;;;;;48.75;18.05;;;;;;;12.50;73.40;102042.09;5018498;28;20041;-40
2023/02/21 11:09:34;;;;;;;40.08;16.13;;;;;;;12.57;73.10;102044.88;5018696;28;20025;-41
2023/02/21 11:12:06;;;;;;;35.72;15.55;;;;;;;12.45;73.07;102043.69;5022694;28;20037;-42
2023/02/21 11:14:33;;;;;;;36.88;15.02;;;;;;;12.54;73.17;102044.81;5019010;28;20462;-40
2023/02/21 11:17:12;;;;;;;38.00;15.70;;;;;;;12.21;74.55;102041.38;5022187;28;20029;-41
2023/02/21 11:19:57;;;;;;;33.10;14.45;;;;;;;12.24;74.08;102041.47;5017374;28;20052;-41
2023/02/21 11:22:34;;;;;;;27.00;13.35;;;;;;;12.35;73.52;102039.09;5018198;28;20487;-42
2023/02/21 11:25:00;;;;;;;28.85;13.10;;;;;;;11.94;74.32;102040.66;5021708;28;20030;-42
2023/02/21 11:27:28;;;;;;;25.08;12.23;;;;;;;12.04;74.84;102038.31;5018608;28;20036;-42
2023/02/21 11:29:54;;;;;;;26.25;12.38;;;;;;;12.11;74.43;102023.69;5022625;28;20076;-41
2023/02/21 11:32:36;;;;;;;22.63;11.82;;;;;;;12.84;72.31;102023.72;5020562;28;20062;-41
2023/02/21 11:35:19;;;;;;;23.30;11.32;;;;;;;12.55;72.62;102024.78;5024331;28;20048;-42
2023/02/21 11:37:59;;;;;;;23.33;11.05;;;;;;;12.89;71.75;102022.06;5018571;28;20042;-42
2023/02/21 11:40:50;;;;;;;20.33;10.77;;;;;;;13.07;70.70;102016.34;5017889;28;20139;-41
2023/02/21 11:43:18;;;;;;;20.45;10.75;;;;;;;13.25;70.33;102010.66;5023151;28;20029;-44
2023/02/21 11:46:36;;;;;;;20.67;10.70;;;;;;;12.77;71.88;102020.91;5021100;28;20041;-40
2023/02/21 11:49:16;;;;;;;23.75;11.18;;;;;;;12.82;72.01;102017.56;4964959;28;20064;-43
2023/02/21 11:52:01;;;;;;;24.45;11.30;;;;;;;12.57;72.71;102018.72;5020675;28;20510;-43
2023/02/21 11:54:29;;;;;;;20.98;10.35;;;;;;;12.56;72.39;102008.25;5018744;28;20049;-40
2023/02/21 11:56:57;;;;;;;22.92;11.27;;;;;;;12.75;71.90;102010.41;5022412;28;20443;-41
2023/02/21 11:59:32;;;;;;;18.65;10.57;;;;;;;12.58;72.69;101998.69;5019409;28;20111;-41
2023/02/21 12:02:24;;;;;;;20.55;10.43;;;;;;;12.64;72.88;102001.44;5023717;28;20450;-39
2023/02/21 12:05:06;;;;;;;18.38;9.85;;;;;;;12.44;73.19;102000.97;5018029;28;20037;-42
2023/02/21 12:07:41;;;;;;;18.70;9.82;;;;;;;12.53;72.95;101995.06;5018684;28;20056;-39
2023/02/21 12:10:29;;;;;;;;;;;;;;;12.49;73.04;101999.38;5020803;28;20042;-41
2023/02/21 12:13:15;;;;;;;17.90;9.57;;;;;;;12.38;72.69;102005.19;5017060;28;19978;-44
2023/02/21 12:15:57;;;;;;;18.92;9.70;;;;;;;12.36;72.99;101999.03;5017337;28;20128;-47
2023/02/21 12:18:43;;;;;;;16.00;9.13;;;;;;;12.59;72.03;101996.09;5017513;28;20121;-41
2023/02/21 12:21:36;;;;;;;18.17;9.75;;;;;;;12.98;70.85;101996.13;5022497;28;20399;-40
2023/02/21 12:24:13;;;;;;;16.30;9.45;;;;;;;12.64;71.96;101992.69;5021115;28;20509;-40
2023/02/21 12:26:47;;;;;;;16.60;9.18;;;;;;;13.15;70.80;101990.38;5021195;28;20113;-42
2023/02/21 12:29:48;;;;;;;16.67;8.73;;;;;;;13.28;70.43;101990.66;5025100;28;20034;-41
2023/02/21 12:32:39;;;;;;;15.15;8.20;;;;;;;13.41;69.75;101991.78;5020955;28;20322;-43
2023/02/21 12:35:26;;;;;;;17.27;8.90;;;;;;;13.07;70.35;101990.16;5019187;28;20037;-41
2023/02/21 12:38:13;;;;;;;15.98;8.45;;;;;;;12.53;71.83;101984.63;5017066;28;20037;-42
2023/02/21 12:40:50;;;;;;;15.13;7.93;;;;;;;12.42;72.15;101981.75;5016768;28;20049;-44
2023/02/21 12:43:45;;;;;;;15.82;8.50;;;;;;;12.58;71.99;101975.13;5020314;28;20081;-42
2023/02/21 12:46:33;;;;;;;15.95;8.15;;;;;;;12.97;70.99;101980.38;5007393;28;20573;-40
2023/02/21 12:49:17;;;;;;;14.95;7.95;;;;;;;13.25;69.72;101979.22;5011543;28;22286;-43
2023/02/21 12:51:53;;;;;;;15.02;7.82;;;;;;;13.24;69.38;101977.44;5016213;28;20195;-41
2023/02/21 12:54:34;;;;;;;15.65;8.25;;;;;;;13.27;69.78;101972.28;5021329;28;20040;-44
2023/02/21 12:57:05;;;;;;;17.05;8.52;;;;;;;12.91;70.46;101978.50;5015977;28;20203;-41
2023/02/21 12:59:51;;;;;;;19.17;9.27;;;;;;;12.94;70.81;101980.28;5016732;28;20092;-39
2023/02/21 13:02:22;;;;;;;19.17;9.00;;;;;;;12.93;70.70;101984.63;5020703;28;20412;-41
2023/02/21 13:04:58;;;;;;;17.50;8.70;;;;;;;12.79;71.31;101975.63;5016953;28;20041;-41
2023/02/21 13:07:32;;;;;;;18.38;8.77;;;;;;;12.50;72.05;101974.09;5020019;28;20140;-40
2023/02/21 13:10:23;;;;;;;16.70;8.52;;;;;;;12.38;71.70;101966.81;5015972;28;20076;-40
2023/02/21 13:12:53;;;;;;;16.05;7.85;;;;;;;12.56;70.66;101964.63;5016083;28;20033;-42
2023/02/21 13:15:21;;;;;;;16.42;7.93;;;;;;;12.42;70.60;101960.84;5021262;28;20048;-40
2023/02/21 13:17:58;;;;;;;17.55;8.15;;;;;;;12.87;70.58;101967.91;5018386;28;20048;-40
2023/02/21 13:20:28;;;;;;;15.15;7.15;;;;;;;12.79;70.46;101966.88;5019872;28;20044;-39
2023/02/21 13:23:12;;;;;;;14.85;6.93;;;;;;;12.62;70.94;101963.91;5019460;28;20063;-41
2023/02/21 13:26:04;;;;;;;16.05;6.75;;;;;;;12.56;70.52;101962.00;5016124;28;20033;-41
2023/02/21 13:28:35;;;;;;;14.95;7.00;;;;;;;12.38;71.71;101958.97;5015796;28;20025;-41
2023/02/21 13:31:03;;;;;;;14.07;6.68;;;;;;;12.18;72.88;101955.91;5020186;28;20056;-40
2023/02/21 13:33:44;;;;;;;16.25;7.05;;;;;;;12.23;72.69;101957.75;5019197;28;20033;-41
2023/02/21 13:36:29;;;;;;;14.35;6.50;;;;;;;12.35;72.25;101951.06;5021877;28;20041;-41
2023/02/21 13:39:14;;;;;;;15.23;7.28;;;;;;;12.32;72.31;101956.22;5016247;28;20521;-41
2023/02/21 13:41:50;;;;;;;14.60;7.10;;;;;;;12.39;71.83;101945.06;5016116;28;20072;-41